createdAt,value
2022-10-18T00:01:10.551Z,99381.00
2022-10-18T00:03:39.718Z,99383.69
2022-10-18T00:06:09.317Z,99383.81
2022-10-18T00:08:38.304Z,99383.81
2022-10-18T00:11:07.297Z,99386.53
2022-10-18T00:13:37.700Z,99392.91
2022-10-18T00:16:11.217Z,99399.13
2022-10-18T00:18:40.172Z,99396.44
2022-10-18T00:21:11.908Z,99399.13
2022-10-18T00:23:40.945Z,99388.38
2022-10-18T00:26:12.061Z,99384.84
2022-10-18T00:28:42.127Z,99385.69
2022-10-18T00:31:13.145Z,99382.16
2022-10-18T00:33:42.788Z,99382.16
2022-10-18T00:36:11.599Z,99386.66
2022-10-18T00:38:40.560Z,99392.03
2022-10-18T00:41:11.359Z,99383.13
2022-10-18T00:43:59.209Z,99380.44
2022-10-18T00:46:29.430Z,99388.50
2022-10-18T00:48:59.814Z,99384.16
2022-10-18T00:51:33.878Z,99384.16
2022-10-18T00:54:02.455Z,99377.91
2022-10-18T00:56:30.966Z,99375.22
2022-10-18T00:59:00.796Z,99368.00
2022-10-18T01:01:29.358Z,99371.53
2022-10-18T01:03:58.561Z,99371.66
2022-10-18T01:06:28.412Z,99377.06
2022-10-18T01:09:12.027Z,99379.75
2022-10-18T01:12:07.570Z,99371.66
2022-10-18T01:14:44.940Z,99377.22
2022-10-18T01:17:17.778Z,99365.63
2022-10-18T01:20:24.271Z,99373.69
2022-10-18T01:22:57.113Z,99364.59
2022-10-18T01:25:38.661Z,99360.91
2022-10-18T01:28:20.529Z,99363.75
2022-10-18T01:30:56.122Z,99362.09
2022-10-18T01:33:29.909Z,99364.59
2022-10-18T01:36:02.153Z,99357.53
2022-10-18T01:38:31.516Z,99353.84
2022-10-18T01:41:00.086Z,99351.97
2022-10-18T01:43:28.576Z,99362.94
2022-10-18T01:45:58.785Z,99353.00
2022-10-18T01:48:27.327Z,99355.69
2022-10-18T01:50:55.874Z,99354.84
2022-10-18T01:53:30.844Z,99346.78
2022-10-18T01:56:24.803Z,99348.44
2022-10-18T01:59:39.281Z,99351.31
2022-10-18T02:02:17.329Z,99347.75
2022-10-18T02:04:50.442Z,99352.16
2022-10-18T02:07:25.610Z,99352.16
2022-10-18T02:10:00.305Z,99349.47
2022-10-18T02:12:29.308Z,99343.25
2022-10-18T02:14:58.097Z,99342.38
2022-10-18T02:17:28.504Z,99339.69
2022-10-18T02:19:57.159Z,99345.06
2022-10-18T02:22:27.666Z,99331.59
2022-10-18T02:24:57.755Z,99335.16
2022-10-18T02:27:26.565Z,99337.00
2022-10-18T02:29:55.031Z,99332.63
2022-10-18T02:32:30.003Z,99323.53
2022-10-18T02:35:00.686Z,99320.84
2022-10-18T02:37:31.462Z,99328.06
2022-10-18T02:39:59.940Z,99324.53
2022-10-18T02:42:34.976Z,99316.47
2022-10-18T02:45:04.565Z,99313.78
2022-10-18T02:47:34.818Z,99321.84
2022-10-18T02:50:03.485Z,99321.00
2022-10-18T02:52:32.102Z,99317.47
2022-10-18T02:55:01.485Z,99311.91
2022-10-18T02:57:30.477Z,99318.31
2022-10-18T02:59:59.394Z,99321.84
2022-10-18T03:02:28.090Z,99315.63
2022-10-18T03:04:58.118Z,99305.84
2022-10-18T03:07:26.709Z,99311.22
2022-10-18T03:09:55.581Z,99313.91
2022-10-18T03:12:24.161Z,99308.53
2022-10-18T03:14:52.847Z,99313.91
2022-10-18T03:17:21.468Z,99305.84
2022-10-18T03:19:50.034Z,99302.31
2022-10-18T03:22:20.158Z,99304.03
2022-10-18T03:24:48.729Z,99308.53
2022-10-18T03:27:17.395Z,99302.31
2022-10-18T03:29:45.919Z,99307.69
2022-10-18T03:32:14.492Z,99306.84
2022-10-18T03:34:43.011Z,99303.16
2022-10-18T03:37:11.659Z,99300.47
2022-10-18T03:39:41.773Z,99298.63
2022-10-18T03:42:10.259Z,99310.38
2022-10-18T03:44:38.943Z,99310.38
2022-10-18T03:47:07.414Z,99308.53
2022-10-18T03:49:36.136Z,99314.94
2022-10-18T03:52:04.612Z,99310.56
2022-10-18T03:54:33.303Z,99318.47
2022-10-18T03:57:03.181Z,99316.78
2022-10-18T03:59:31.725Z,99316.78
2022-10-18T04:02:00.287Z,99320.31
2022-10-18T04:04:28.993Z,99320.31
2022-10-18T04:06:57.813Z,99318.63
2022-10-18T04:09:26.306Z,99325.84
2022-10-18T04:11:55.025Z,99330.25
2022-10-18T04:14:24.900Z,99331.22
2022-10-18T04:16:53.474Z,99325.84
2022-10-18T04:19:22.046Z,99332.94
2022-10-18T04:21:50.747Z,99327.22
2022-10-18T04:24:19.325Z,99327.22
2022-10-18T04:26:47.787Z,99331.47
2022-10-18T04:29:16.294Z,99332.47
2022-10-18T04:31:46.170Z,99334.28
2022-10-18T04:34:19.901Z,99336.84
2022-10-18T04:36:48.433Z,99336.84
2022-10-18T04:39:18.217Z,99334.16
2022-10-18T04:41:46.825Z,99330.63
2022-10-18T04:44:15.570Z,99332.47
2022-10-18T04:46:45.574Z,99338.53
2022-10-18T04:49:14.482Z,99340.22
2022-10-18T04:51:43.451Z,99333.00
2022-10-18T04:54:12.011Z,99336.53
2022-10-18T04:56:40.648Z,99324.59
2022-10-18T04:59:09.152Z,99321.19
2022-10-18T05:01:38.094Z,99313.81
2022-10-18T05:04:07.951Z,99318.19
2022-10-18T05:06:36.603Z,99329.81
2022-10-18T05:09:05.235Z,99327.44
2022-10-18T05:11:33.727Z,99323.41
2022-10-18T05:14:02.307Z,99326.94
2022-10-18T05:16:33.523Z,99318.19
2022-10-18T05:19:02.011Z,99319.91
2022-10-18T05:21:32.113Z,99318.19
2022-10-18T05:24:00.655Z,99323.75
2022-10-18T05:26:29.185Z,99322.03
2022-10-18T05:28:57.944Z,99328.28
2022-10-18T05:31:26.593Z,99319.19
2022-10-18T05:33:55.162Z,99329.13
2022-10-18T05:36:25.753Z,99328.94
2022-10-18T05:38:56.273Z,99337.91
2022-10-18T05:41:25.450Z,99337.72
2022-10-18T05:43:54.365Z,99326.44
2022-10-18T05:46:22.839Z,99322.88
2022-10-18T05:48:52.071Z,99322.88
2022-10-18T05:51:20.612Z,99323.84
2022-10-18T05:53:49.146Z,99314.56
2022-10-18T05:56:18.961Z,99332.56
2022-10-18T05:58:51.537Z,99325.56
2022-10-18T06:01:20.239Z,99324.50
2022-10-18T06:03:48.896Z,99330.63
2022-10-18T06:06:17.579Z,99317.66
2022-10-18T06:08:46.112Z,99321.38
2022-10-18T06:11:15.998Z,99322.34
2022-10-18T06:13:47.538Z,99327.59
2022-10-18T06:16:18.146Z,99323.91
2022-10-18T06:18:49.247Z,99314.97
2022-10-18T06:21:17.959Z,99321.19
2022-10-18T06:23:49.588Z,99318.50
2022-10-18T06:26:18.102Z,99323.75
2022-10-18T06:28:48.009Z,99322.91
2022-10-18T06:31:16.633Z,99323.75
2022-10-18T06:33:45.715Z,99309.44
2022-10-18T06:36:15.460Z,99311.13
2022-10-18T06:38:44.245Z,99316.50
2022-10-18T06:41:12.744Z,99319.19
2022-10-18T06:43:41.435Z,99329.97
2022-10-18T06:46:11.314Z,99325.44
2022-10-18T06:48:40.590Z,99327.97
2022-10-18T06:51:09.318Z,99327.13
2022-10-18T06:53:44.007Z,99333.34
2022-10-18T06:56:17.175Z,99324.25
2022-10-18T06:58:45.730Z,99327.97
2022-10-18T07:01:16.792Z,99321.56
2022-10-18T07:03:45.505Z,99322.59
2022-10-18T07:06:15.740Z,99325.09
2022-10-18T07:08:44.383Z,99326.81
2022-10-18T07:11:18.364Z,99322.94
2022-10-18T07:13:46.937Z,99327.47
2022-10-18T07:16:18.722Z,99329.50
2022-10-18T07:18:49.453Z,99327.66
2022-10-18T07:21:20.219Z,99329.81
2022-10-18T07:23:48.870Z,99331.50
2022-10-18T07:26:19.047Z,99328.66
2022-10-18T07:28:50.634Z,99323.28
2022-10-18T07:31:20.550Z,99326.94
2022-10-18T07:33:49.111Z,99324.25
2022-10-18T07:36:17.653Z,99322.59
2022-10-18T07:38:46.288Z,99325.28
2022-10-18T07:41:15.098Z,99334.88
2022-10-18T07:43:44.532Z,99333.41
2022-10-18T07:46:13.241Z,99335.72
2022-10-18T07:48:43.208Z,99335.03
2022-10-18T07:51:11.852Z,99325.09
2022-10-18T07:53:40.356Z,99323.28
2022-10-18T07:56:11.928Z,99316.41
2022-10-18T07:58:40.422Z,99312.69
2022-10-18T08:01:09.712Z,99299.72
2022-10-18T08:03:38.584Z,99298.75
2022-10-18T08:06:09.811Z,99297.59
2022-10-18T08:08:39.237Z,99298.78
2022-10-18T08:11:08.750Z,99296.09
2022-10-18T08:13:37.605Z,99298.94
2022-10-18T08:16:07.348Z,99292.72
2022-10-18T08:18:36.705Z,99294.38
2022-10-18T08:21:07.854Z,99288.84
2022-10-18T08:23:36.868Z,99292.38
2022-10-18T08:26:40.311Z,99291.91
2022-10-18T08:29:22.959Z,99287.69
2022-10-18T08:31:53.973Z,99286.66
2022-10-18T08:34:23.445Z,99283.97
2022-10-18T08:40:51.570Z,99278.22
2022-10-18T08:43:27.729Z,99271.28
2022-10-18T08:45:56.452Z,99270.09
2022-10-18T08:48:28.652Z,99273.63
2022-10-18T08:50:57.409Z,99273.81
2022-10-18T08:53:29.282Z,99265.03
2022-10-18T08:56:04.019Z,99266.06
2022-10-18T08:58:33.955Z,99264.19
2022-10-18T09:01:11.494Z,99259.66
2022-10-18T09:04:02.418Z,99250.53
2022-10-18T09:06:34.106Z,99252.41
2022-10-18T09:09:12.651Z,99252.41
2022-10-18T09:11:57.997Z,99239.78
2022-10-18T09:14:52.547Z,99249.03
2022-10-18T09:17:29.352Z,99243.63
2022-10-18T09:20:09.602Z,99250.03
2022-10-18T09:22:49.777Z,99236.25
2022-10-18T09:25:20.431Z,99247.69
2022-10-18T09:27:55.430Z,99243.16
2022-10-18T09:30:42.595Z,99243.16
2022-10-18T09:33:42.471Z,99236.91
2022-10-18T09:36:12.453Z,99241.63
2022-10-18T09:38:45.926Z,99243.34
2022-10-18T09:41:18.660Z,99236.75
2022-10-18T09:43:55.288Z,99237.78
2022-10-18T09:46:26.184Z,99233.56
2022-10-18T09:48:57.237Z,99232.56
2022-10-18T09:51:27.834Z,99235.75
2022-10-18T09:54:18.488Z,99219.72
2022-10-18T09:56:49.972Z,99226.97
2022-10-18T09:59:35.625Z,99220.75
2022-10-18T10:02:07.370Z,99213.69
2022-10-18T10:04:36.543Z,99212.81
2022-10-18T10:07:06.244Z,99212.81
2022-10-18T10:09:41.158Z,99206.59
2022-10-18T10:12:28.972Z,99209.28
2022-10-18T10:15:11.143Z,99206.59
2022-10-18T10:17:39.854Z,99197.81
2022-10-18T10:20:18.878Z,99190.78
2022-10-18T10:22:48.637Z,99195.13
2022-10-18T10:25:24.584Z,99191.59
2022-10-18T10:27:53.201Z,99176.28
2022-10-18T10:30:34.673Z,99185.38
2022-10-18T10:33:03.398Z,99178.13
2022-10-18T10:35:52.655Z,99166.66
2022-10-18T10:38:25.970Z,99162.16
2022-10-18T10:40:54.773Z,99163.97
2022-10-18T10:43:37.118Z,99155.91
2022-10-18T10:46:10.648Z,99158.44
2022-10-18T10:48:48.672Z,99145.97
2022-10-18T10:51:19.676Z,99134.34
2022-10-18T10:53:52.252Z,99131.66
2022-10-18T10:56:26.387Z,99137.03
2022-10-18T10:58:55.535Z,99127.28
2022-10-18T11:01:32.016Z,99129.13
2022-10-18T11:04:02.523Z,99120.22
2022-10-18T11:06:41.416Z,99114.81
2022-10-18T11:09:47.627Z,99107.75
2022-10-18T11:12:30.176Z,99113.97
2022-10-18T11:15:12.047Z,99108.56
2022-10-18T11:17:45.406Z,99096.97
2022-10-18T11:20:22.643Z,99103.19
2022-10-18T11:23:02.990Z,99100.69
2022-10-18T11:25:45.797Z,99101.50
2022-10-18T11:28:19.857Z,99091.75
2022-10-18T11:30:59.253Z,99097.97
2022-10-18T11:34:03.562Z,99085.34
2022-10-18T11:36:28.191Z,99083.69
2022-10-18T11:38:58.833Z,99081.81
2022-10-18T11:41:37.229Z,99062.13
2022-10-18T11:44:12.918Z,99073.06
2022-10-18T11:46:56.316Z,99070.03
2022-10-18T11:49:49.077Z,99056.06
2022-10-18T11:52:21.361Z,99047.81
2022-10-18T11:55:04.222Z,99038.88
2022-10-18T11:57:44.943Z,99042.44
2022-10-18T12:00:34.546Z,99040.56
2022-10-18T12:03:14.222Z,99040.72
2022-10-18T12:05:45.808Z,99034.34
2022-10-18T12:08:16.590Z,99033.47
2022-10-18T12:11:06.720Z,99019.19
2022-10-18T12:13:40.035Z,99021.03
2022-10-18T12:16:09.327Z,99015.50
2022-10-18T12:18:38.400Z,99004.72
2022-10-18T12:21:08.619Z,99004.88
2022-10-18T12:23:40.287Z,99001.16
2022-10-18T12:26:09.389Z,98987.69
2022-10-18T12:28:46.686Z,98984.16
2022-10-18T12:31:22.807Z,98976.06
2022-10-18T12:33:54.368Z,98974.22
2022-10-18T12:36:57.482Z,98972.53
2022-10-18T12:39:37.662Z,98979.59
2022-10-18T12:42:19.657Z,98973.38
2022-10-18T12:44:48.266Z,98975.25
2022-10-18T12:47:23.846Z,98969.34
2022-10-18T12:49:57.928Z,98966.78
2022-10-18T12:52:29.213Z,98963.41
2022-10-18T12:55:28.938Z,98954.31
2022-10-18T12:58:39.319Z,98959.72
2022-10-18T13:01:08.369Z,98961.72
2022-10-18T13:04:01.816Z,98951.97
2022-10-18T13:07:19.741Z,98943.91
2022-10-18T13:10:39.761Z,98950.97
2022-10-18T13:13:57.065Z,98945.72
2022-10-18T13:16:33.853Z,98950.47
2022-10-18T13:19:15.780Z,98945.91
2022-10-18T13:21:48.063Z,98933.47
2022-10-18T13:24:26.182Z,98936.81
2022-10-18T13:27:24.557Z,98932.44
2022-10-18T13:30:48.014Z,98918.13
2022-10-18T13:33:35.672Z,98912.75
2022-10-18T13:36:06.012Z,98917.13
2022-10-18T13:38:48.068Z,98921.19
2022-10-18T13:41:19.492Z,98916.13
2022-10-18T13:44:25.097Z,98913.41
2022-10-18T13:47:40.546Z,98915.47
2022-10-18T13:50:33.986Z,98907.38
2022-10-18T13:53:32.897Z,98902.16
2022-10-18T13:56:32.038Z,98893.91
2022-10-18T13:59:16.202Z,98910.72
2022-10-18T14:01:55.100Z,98908.03
2022-10-18T14:04:49.022Z,98904.00
2022-10-18T14:07:18.359Z,98907.53
2022-10-18T14:09:52.283Z,98899.44
2022-10-18T14:12:28.014Z,98895.91
2022-10-18T14:15:00.957Z,98903.16
2022-10-18T14:17:35.607Z,98897.78
2022-10-18T14:20:28.631Z,98890.69
2022-10-18T14:23:03.887Z,98892.38
2022-10-18T14:25:35.569Z,98893.22
2022-10-18T14:28:12.262Z,98891.53
2022-10-18T14:30:56.336Z,98886.31
2022-10-18T14:33:31.827Z,98882.94
2022-10-18T14:36:05.199Z,98882.94
2022-10-18T14:38:33.873Z,98873.19
2022-10-18T14:41:16.187Z,98890.19
2022-10-18T14:43:45.067Z,98881.28
2022-10-18T14:46:20.521Z,98867.97
2022-10-18T14:48:56.189Z,98869.00
2022-10-18T14:51:26.589Z,98853.66
2022-10-18T14:53:55.379Z,98860.06
2022-10-18T14:56:28.798Z,98852.00
2022-10-18T14:58:58.780Z,98855.69
2022-10-18T15:01:29.402Z,98855.69
2022-10-18T15:03:58.865Z,98854.00
2022-10-18T15:06:28.764Z,98843.25
2022-10-18T15:08:58.957Z,98843.25
2022-10-18T15:11:27.578Z,98854.00
2022-10-18T15:13:57.534Z,98836.19
2022-10-18T15:16:29.341Z,98834.50
2022-10-18T15:19:06.298Z,98829.94
2022-10-18T15:21:36.326Z,98831.78
2022-10-18T15:24:21.985Z,98834.13
2022-10-18T15:26:50.451Z,98832.31
2022-10-18T15:29:20.501Z,98834.13
2022-10-18T15:31:49.837Z,98830.44
2022-10-18T15:34:20.531Z,98832.47
2022-10-18T15:36:51.189Z,98823.34
2022-10-18T15:39:22.446Z,98831.44
2022-10-18T15:41:51.737Z,98827.75
2022-10-18T15:44:31.770Z,98826.91
2022-10-18T15:47:20.812Z,98832.31
2022-10-18T15:49:56.165Z,98824.22
2022-10-18T15:52:39.208Z,98833.31
2022-10-18T15:55:49.146Z,98826.91
2022-10-18T15:58:25.311Z,98833.97
2022-10-18T16:00:58.007Z,98833.97
2022-10-18T16:03:26.578Z,98827.56
2022-10-18T16:05:58.116Z,98826.22
2022-10-18T16:08:30.580Z,98824.72
2022-10-18T16:10:59.850Z,98827.22
2022-10-18T16:13:28.536Z,98833.47
2022-10-18T16:15:57.168Z,98843.38
2022-10-18T16:18:25.671Z,98839.69
2022-10-18T16:20:54.281Z,98837.00
2022-10-18T16:23:24.843Z,98844.41
2022-10-18T16:25:54.855Z,98842.38
2022-10-18T16:28:25.511Z,98833.78
2022-10-18T16:30:56.990Z,98845.59
2022-10-18T16:33:25.595Z,98843.09
2022-10-18T16:35:54.360Z,98848.94
2022-10-18T16:38:31.209Z,98845.06
2022-10-18T16:41:05.206Z,98852.31
2022-10-18T16:43:34.633Z,98842.53
2022-10-18T16:46:03.523Z,98860.41
2022-10-18T16:48:33.440Z,98856.00
2022-10-18T16:51:02.230Z,98863.09
2022-10-18T16:53:30.999Z,98861.22
2022-10-18T16:56:00.898Z,98857.03
2022-10-18T16:58:31.489Z,98864.09
2022-10-18T17:01:01.985Z,98864.09
2022-10-18T17:03:32.762Z,98869.81
2022-10-18T17:06:01.286Z,98867.13
2022-10-18T17:08:30.514Z,98864.09
2022-10-18T17:11:00.135Z,98858.91
2022-10-18T17:13:30.111Z,98870.50
2022-10-18T17:15:59.361Z,98873.19
2022-10-18T17:18:28.074Z,98882.13
2022-10-18T17:20:56.667Z,98871.50
2022-10-18T17:23:25.421Z,98884.81
2022-10-18T17:26:05.076Z,98885.63
2022-10-18T17:28:38.636Z,98892.88
2022-10-18T17:31:08.336Z,98891.03
2022-10-18T17:33:37.253Z,98900.81
2022-10-18T17:36:06.244Z,98898.13
2022-10-18T17:38:35.545Z,98902.47
2022-10-18T17:41:10.895Z,98904.00
2022-10-18T17:43:41.787Z,98906.00
2022-10-18T17:46:11.881Z,98903.31
2022-10-18T17:48:40.537Z,98907.88
2022-10-18T17:51:10.182Z,98907.88
2022-10-18T17:53:38.755Z,98894.56
2022-10-18T17:56:08.230Z,98905.53
2022-10-18T17:58:37.313Z,98911.91
2022-10-18T18:01:12.480Z,98906.88
2022-10-18T18:03:41.113Z,98895.09
2022-10-18T18:06:17.477Z,98906.88
2022-10-18T18:08:46.271Z,98905.03
2022-10-18T18:11:15.106Z,98896.97
2022-10-18T18:13:43.751Z,98896.09
2022-10-18T18:16:15.709Z,98910.44
2022-10-18T18:18:44.409Z,98899.81
2022-10-18T18:21:12.985Z,98904.19
2022-10-18T18:23:41.696Z,98910.59
2022-10-18T18:26:10.606Z,98914.31
2022-10-18T18:28:39.340Z,98918.66
2022-10-18T18:31:08.814Z,98902.50
2022-10-18T18:33:38.903Z,98912.25
2022-10-18T18:36:08.171Z,98911.41
2022-10-18T18:38:40.081Z,98918.66
2022-10-18T18:41:10.060Z,98919.50
2022-10-18T18:43:39.005Z,98926.59
2022-10-18T18:46:07.695Z,98931.97
2022-10-18T18:48:36.631Z,98930.13
2022-10-18T18:51:07.309Z,98931.13
2022-10-18T18:53:35.951Z,98925.09
2022-10-18T18:56:05.373Z,98940.22
2022-10-18T18:58:35.198Z,98946.63
2022-10-18T19:01:08.597Z,98953.69
2022-10-18T19:03:38.369Z,98965.47
2022-10-18T19:06:09.924Z,98973.56
2022-10-18T19:08:39.695Z,98964.63
2022-10-18T19:11:09.634Z,98971.88
2022-10-18T19:13:38.303Z,98977.41
2022-10-18T19:16:21.139Z,98983.63
2022-10-18T19:18:55.083Z,98996.09
2022-10-18T19:21:25.437Z,98982.63
2022-10-18T19:23:54.342Z,98989.03
2022-10-18T19:26:34.006Z,98985.34
2022-10-18T19:29:05.720Z,98985.19
2022-10-18T19:31:36.215Z,98982.63
2022-10-18T19:34:07.576Z,98984.16
2022-10-18T19:36:37.735Z,98966.94
2022-10-18T19:39:06.866Z,98982.28
2022-10-18T19:41:35.411Z,99001.16
2022-10-18T19:44:04.217Z,99000.16
2022-10-18T19:46:32.914Z,98999.97
2022-10-18T19:49:01.497Z,99017.84
2022-10-18T19:51:30.109Z,99017.84
2022-10-18T19:54:00.090Z,99018.00
2022-10-18T19:56:29.796Z,99022.38
2022-10-18T19:58:59.148Z,99023.38
2022-10-18T20:01:28.089Z,99033.13
2022-10-18T20:03:56.963Z,99041.41
2022-10-18T20:06:26.864Z,99044.94
2022-10-18T20:08:55.715Z,99050.50
2022-10-18T20:11:27.731Z,99055.72
2022-10-18T20:13:56.618Z,99056.72
2022-10-18T20:16:28.352Z,99049.66
2022-10-18T20:18:58.534Z,99062.13
2022-10-18T20:21:27.368Z,99067.50
2022-10-18T20:23:55.947Z,99060.41
2022-10-18T20:26:26.334Z,99067.66
2022-10-18T20:28:57.846Z,99074.56
2022-10-18T20:31:27.791Z,99071.03
2022-10-18T20:33:57.213Z,99087.88
2022-10-18T20:36:25.871Z,99085.34
2022-10-18T20:38:55.165Z,99080.97
2022-10-18T20:41:26.697Z,99091.56
2022-10-18T20:43:55.940Z,99093.28
2022-10-18T20:46:24.503Z,99096.97
2022-10-18T20:48:53.729Z,99095.28
2022-10-18T20:51:22.557Z,99090.91
2022-10-18T20:53:51.368Z,99091.06
2022-10-18T20:56:21.872Z,99087.22
2022-10-18T20:58:52.983Z,99090.06
2022-10-18T21:01:23.075Z,99089.22
2022-10-18T21:03:52.988Z,99091.91
2022-10-18T21:06:23.384Z,99091.91
2022-10-18T21:08:54.757Z,99092.75
2022-10-18T21:11:23.603Z,99106.22
2022-10-18T21:13:53.935Z,99093.78
2022-10-18T21:16:22.589Z,99096.47
2022-10-18T21:18:51.318Z,99099.16
2022-10-18T21:21:22.871Z,99094.78
2022-10-18T21:23:51.907Z,99087.69
2022-10-18T21:26:22.442Z,99088.69
2022-10-18T21:28:51.504Z,99092.22
2022-10-18T21:31:22.315Z,99083.16
2022-10-18T21:33:54.246Z,99084.13
2022-10-18T21:36:23.187Z,99078.75
2022-10-18T21:38:51.916Z,99077.09
2022-10-18T21:41:21.383Z,99074.38
2022-10-18T21:43:51.655Z,99069.00
2022-10-18T21:46:23.034Z,99068.13
2022-10-18T21:48:53.280Z,99064.44
2022-10-18T21:51:23.359Z,99065.16
2022-10-18T21:53:54.607Z,99062.28
2022-10-18T21:56:24.703Z,99062.97
2022-10-18T21:58:53.312Z,99061.09
2022-10-18T22:01:24.620Z,99067.50
2022-10-18T22:03:55.607Z,99071.19
2022-10-18T22:06:24.314Z,99071.19
2022-10-18T22:08:55.487Z,99064.13
2022-10-18T22:11:25.829Z,99067.00
2022-10-18T22:13:54.635Z,99064.13
2022-10-18T22:16:28.277Z,99060.59
2022-10-18T22:18:59.001Z,99060.03
2022-10-18T22:21:27.552Z,99067.84
2022-10-18T22:23:58.012Z,99059.06
2022-10-18T22:26:28.426Z,99064.28
2022-10-18T22:28:57.750Z,99060.75
2022-10-18T22:31:29.053Z,99059.91
2022-10-18T22:33:58.459Z,99059.91
2022-10-18T22:36:27.295Z,99065.28
2022-10-18T22:38:55.853Z,99064.44
2022-10-18T22:41:24.547Z,99061.75
2022-10-18T22:43:53.306Z,99055.53
2022-10-18T22:46:21.866Z,99059.22
2022-10-18T22:48:51.790Z,99068.13
2022-10-18T22:51:20.719Z,99067.47
2022-10-18T22:53:49.274Z,99064.78
2022-10-18T22:56:19.319Z,99067.63
2022-10-18T22:58:48.442Z,99058.72
2022-10-18T23:01:19.010Z,99061.41
2022-10-18T23:03:47.779Z,99056.84
2022-10-18T23:06:22.956Z,99056.03
2022-10-18T23:08:51.747Z,99060.56
2022-10-18T23:11:20.738Z,99059.75
2022-10-18T23:13:49.433Z,99059.75
2022-10-18T23:16:18.553Z,99062.44
2022-10-18T23:18:51.061Z,99068.81
2022-10-18T23:21:21.186Z,99061.75
2022-10-18T23:23:49.665Z,99067.97
2022-10-18T23:26:25.811Z,99069.84
2022-10-18T23:28:54.703Z,99067.97
2022-10-18T23:31:24.842Z,99071.50
2022-10-18T23:33:54.295Z,99076.06
2022-10-18T23:36:24.713Z,99066.47
2022-10-18T23:38:53.297Z,99071.84
2022-10-18T23:41:22.000Z,99065.28
2022-10-18T23:43:50.514Z,99056.38
2022-10-18T23:46:19.511Z,99052.84
2022-10-18T23:48:48.247Z,99054.66
2022-10-18T23:51:16.947Z,99053.00
2022-10-18T23:53:47.023Z,99058.38
2022-10-18T23:56:16.463Z,99060.91
2022-10-18T23:58:45.474Z,99062.75
